Augusta, West Virginia
Current Conditions -  °F | °C
As of 9:34 AM on Thursday 23 Oct 2014 (Local Time) from KCBE Reporting Station
Broken Clouds Broken Clouds  
Wind Chill: 52°   Ceiling: 2900
Heat Index: 52°   Visibility: 10mi
Dew Point: 41°   Wind: 14mph
Humidity: 67%   Direction: 310°NW
Pressure: 30.07"   Gusts: 20mph
Location:  39.3°N, 78.64°W
Report Text: KCBE 231334Z AUTO 31012G17KT 291V351 10SM BKN029 BKN034 11/05 A3007 RMK AO1
Loading
Personal Weather Stations






























Interactive Weather Map New forecast layout! Learn more

10-Day Weather Forecast

Advertisements
Track Severe Weather on mobile